createdAt,value
2022-08-30T00:02:03.929Z,19.17
2022-08-30T00:04:31.071Z,21.45
2022-08-30T00:06:58.256Z,19.02
2022-08-30T00:09:25.381Z,19.80
2022-08-30T00:11:52.594Z,17.45
2022-08-30T00:14:20.527Z,15.00
2022-08-30T00:16:48.237Z,18.15
2022-08-30T00:19:15.334Z,21.50
2022-08-30T00:21:42.542Z,15.40
2022-08-30T00:24:09.682Z,18.95
2022-08-30T00:26:36.823Z,19.63
2022-08-30T00:29:04.054Z,14.93
2022-08-30T00:31:31.846Z,22.00
2022-08-30T00:33:59.024Z,13.82
2022-08-30T00:36:26.685Z,20.17
2022-08-30T00:38:54.331Z,20.42
2022-08-30T00:41:22.854Z,16.77
2022-08-30T00:43:50.055Z,19.48
2022-08-30T00:46:17.250Z,23.75
2022-08-30T00:48:49.873Z,17.98
2022-08-30T00:51:17.698Z,17.63
2022-08-30T00:53:49.891Z,16.67
2022-08-30T00:56:18.412Z,20.85
2022-08-30T00:58:50.448Z,17.85
2022-08-30T01:01:18.696Z,15.02
2022-08-30T01:03:46.898Z,20.02
2022-08-30T01:06:17.275Z,16.42
2022-08-30T01:08:46.961Z,16.08
2022-08-30T01:11:17.065Z,17.58
2022-08-30T01:13:47.204Z,18.92
2022-08-30T01:16:15.367Z,24.77
2022-08-30T01:18:42.974Z,19.23
2022-08-30T01:21:22.270Z,17.33
2022-08-30T01:23:53.855Z,20.15
2022-08-30T01:26:22.646Z,20.15
2022-08-30T01:28:54.883Z,17.70
2022-08-30T01:31:22.345Z,22.65
2022-08-30T01:33:51.203Z,18.90
2022-08-30T01:36:20.382Z,18.98
2022-08-30T01:38:51.085Z,23.02
2022-08-30T01:41:30.861Z,18.40
2022-08-30T01:44:01.054Z,20.38
2022-08-30T01:46:36.217Z,19.13
2022-08-30T01:49:06.897Z,18.20
2022-08-30T01:51:34.417Z,21.58
2022-08-30T01:54:01.568Z,25.42
2022-08-30T01:56:30.256Z,19.17
2022-08-30T01:59:02.377Z,20.70
2022-08-30T02:01:37.057Z,23.13
2022-08-30T02:04:05.642Z,23.20
2022-08-30T02:06:33.199Z,20.77
2022-08-30T02:09:00.850Z,23.85
2022-08-30T02:11:28.259Z,17.10
2022-08-30T02:13:56.017Z,19.45
2022-08-30T02:16:24.673Z,12.98
2022-08-30T02:18:53.680Z,18.40
2022-08-30T02:21:21.319Z,20.42
2022-08-30T02:23:49.522Z,18.48
2022-08-30T02:26:17.738Z,23.15
2022-08-30T02:28:50.353Z,18.50
2022-08-30T02:31:20.746Z,23.88
2022-08-30T02:33:51.310Z,24.60
2022-08-30T02:36:20.879Z,24.60
2022-08-30T02:38:49.355Z,26.02
2022-08-30T02:41:17.551Z,19.13
2022-08-30T02:43:44.834Z,32.65
2022-08-30T02:46:12.180Z,25.38
2022-08-30T02:48:39.408Z,23.00
2022-08-30T02:51:10.545Z,19.95
2022-08-30T02:53:40.177Z,19.30
2022-08-30T02:56:08.027Z,17.52
2022-08-30T02:58:35.254Z,25.10
2022-08-30T03:01:02.590Z,23.88
2022-08-30T03:03:29.898Z,18.25
2022-08-30T03:05:57.186Z,26.05
2022-08-30T03:08:24.399Z,22.90
2022-08-30T03:10:52.259Z,21.63
2022-08-30T03:13:19.446Z,21.65
2022-08-30T03:15:49.146Z,21.00
2022-08-30T03:18:17.647Z,20.48
2022-08-30T03:20:46.219Z,21.77
2022-08-30T03:23:23.088Z,23.27
2022-08-30T03:25:50.400Z,22.52
2022-08-30T03:28:17.521Z,17.55
2022-08-30T03:30:44.719Z,24.55
2022-08-30T03:33:11.854Z,16.45
2022-08-30T03:35:39.023Z,19.70
2022-08-30T03:38:06.955Z,16.25
2022-08-30T03:40:34.408Z,17.27
2022-08-30T03:43:03.204Z,17.13
2022-08-30T03:48:02.825Z,18.15
2022-08-30T03:50:30.782Z,19.17
2022-08-30T03:52:58.702Z,18.35
2022-08-30T03:55:28.287Z,21.23
2022-08-30T03:57:55.679Z,20.13
2022-08-30T04:00:23.129Z,20.02
2022-08-30T04:02:50.289Z,18.80
2022-08-30T04:05:18.677Z,21.55
2022-08-30T04:07:46.863Z,18.98
2022-08-30T04:10:14.114Z,15.68
2022-08-30T04:12:43.276Z,18.60
2022-08-30T04:17:40.947Z,17.40
2022-08-30T04:20:09.049Z,19.17
2022-08-30T04:22:37.081Z,18.45
2022-08-30T04:25:05.375Z,21.65
2022-08-30T04:27:32.669Z,16.63
2022-08-30T04:30:00.398Z,21.90
2022-08-30T04:32:28.051Z,16.65
2022-08-30T04:34:59.780Z,18.17
2022-08-30T04:37:27.060Z,17.38
2022-08-30T04:40:00.892Z,18.83
2022-08-30T04:42:31.484Z,22.20
2022-08-30T04:45:01.483Z,21.05
2022-08-30T04:49:57.975Z,27.02
2022-08-30T04:52:25.407Z,19.15
2022-08-30T04:54:57.009Z,16.30
2022-08-30T04:57:25.608Z,19.95
2022-08-30T04:59:52.812Z,21.45
2022-08-30T05:02:20.266Z,13.40
2022-08-30T05:05:06.225Z,22.63
2022-08-30T05:07:34.072Z,16.60
2022-08-30T05:10:01.532Z,22.25
2022-08-30T05:12:30.298Z,21.35
2022-08-30T05:14:58.632Z,20.70
2022-08-30T05:17:25.993Z,21.90
2022-08-30T05:19:53.164Z,19.23
2022-08-30T05:22:20.607Z,22.30
2022-08-30T05:24:47.719Z,22.73
2022-08-30T05:27:15.018Z,18.35
2022-08-30T05:29:42.353Z,29.05
2022-08-30T05:32:09.636Z,27.40
2022-08-30T05:34:36.838Z,21.75
2022-08-30T05:37:04.073Z,26.90
2022-08-30T05:39:44.950Z,25.75
2022-08-30T05:42:18.785Z,26.33
2022-08-30T05:44:46.033Z,22.17
2022-08-30T05:47:13.291Z,22.40
2022-08-30T05:49:40.439Z,22.02
2022-08-30T05:52:07.668Z,24.73
2022-08-30T05:54:34.844Z,24.55
2022-08-30T05:57:02.106Z,27.13
2022-08-30T05:59:32.222Z,23.77
2022-08-30T06:01:59.902Z,25.90
2022-08-30T06:04:27.117Z,28.85
2022-08-30T06:06:54.269Z,24.88
2022-08-30T06:09:21.482Z,28.88
2022-08-30T06:11:48.859Z,25.02
2022-08-30T06:14:16.173Z,21.45
2022-08-30T06:16:46.010Z,30.67
2022-08-30T06:19:15.507Z,30.25
2022-08-30T06:21:43.943Z,23.55
2022-08-30T06:24:11.651Z,24.52
2022-08-30T06:26:45.777Z,20.45
2022-08-30T06:29:16.254Z,24.33
2022-08-30T06:31:43.980Z,28.05
2022-08-30T06:34:11.636Z,31.45
2022-08-30T06:36:39.183Z,21.10
2022-08-30T06:39:06.435Z,22.63
2022-08-30T06:41:37.627Z,30.77
2022-08-30T06:44:11.571Z,27.40
2022-08-30T06:46:39.213Z,26.08
2022-08-30T06:49:07.732Z,23.10
2022-08-30T06:51:39.849Z,22.00
2022-08-30T06:54:09.195Z,29.63
2022-08-30T06:56:40.274Z,21.00
2022-08-30T06:59:10.206Z,24.45
2022-08-30T07:01:37.434Z,21.67
2022-08-30T07:04:04.880Z,25.98
2022-08-30T07:06:32.885Z,21.92
2022-08-30T07:09:00.097Z,19.33
2022-08-30T07:11:34.871Z,21.52
2022-08-30T07:14:06.479Z,33.30
2022-08-30T07:16:34.132Z,24.02
2022-08-30T07:19:03.170Z,20.08
2022-08-30T07:21:43.915Z,19.95
2022-08-30T07:24:13.137Z,21.58
2022-08-30T07:26:50.034Z,28.48
2022-08-30T07:29:18.485Z,25.55
2022-08-30T07:31:45.837Z,23.52
2022-08-30T07:34:13.264Z,25.30
2022-08-30T07:36:40.451Z,21.33
2022-08-30T07:39:08.497Z,23.58
2022-08-30T07:41:38.987Z,22.38
2022-08-30T07:44:09.542Z,26.65
2022-08-30T07:46:40.830Z,26.80
2022-08-30T07:49:11.092Z,27.42
2022-08-30T07:51:42.137Z,33.63
2022-08-30T07:54:09.476Z,27.42
2022-08-30T07:56:39.054Z,25.25
2022-08-30T07:59:06.412Z,26.85
2022-08-30T08:01:33.598Z,28.70
2022-08-30T08:04:00.814Z,20.02
2022-08-30T08:06:34.662Z,23.77
2022-08-30T08:09:02.625Z,28.27
2022-08-30T08:11:33.650Z,18.20
2022-08-30T08:14:02.365Z,33.13
2022-08-30T08:16:33.007Z,20.77
2022-08-30T08:19:00.892Z,21.27
2022-08-30T08:21:28.791Z,22.33
2022-08-30T08:23:56.248Z,21.92
2022-08-30T08:26:23.558Z,30.77
2022-08-30T08:28:50.819Z,26.85
2022-08-30T08:31:33.193Z,25.92
2022-08-30T08:34:04.423Z,24.35
2022-08-30T08:36:32.584Z,28.73
2022-08-30T08:39:00.658Z,23.30
2022-08-30T08:41:45.881Z,26.08
2022-08-30T08:44:41.886Z,34.22
2022-08-30T08:47:40.434Z,25.48
2022-08-30T08:50:17.436Z,25.27
2022-08-30T08:53:25.161Z,26.42
2022-08-30T08:55:58.728Z,29.63
2022-08-30T08:58:30.933Z,29.30
2022-08-30T09:01:01.723Z,26.17
2022-08-30T09:03:30.435Z,29.30
2022-08-30T09:05:59.258Z,25.20
2022-08-30T09:08:27.571Z,26.42
2022-08-30T09:11:01.788Z,24.67
2022-08-30T09:13:29.366Z,26.38
2022-08-30T09:16:01.322Z,24.55
2022-08-30T09:18:54.668Z,33.95
2022-08-30T09:21:27.866Z,27.23
2022-08-30T09:24:04.985Z,33.25
2022-08-30T09:26:35.744Z,29.20
2022-08-30T09:29:09.045Z,26.55
2022-08-30T09:32:05.646Z,28.48
2022-08-30T09:34:46.088Z,31.80
2022-08-30T09:39:52.673Z,31.92
2022-08-30T09:42:26.224Z,31.25
2022-08-30T09:45:10.491Z,33.00
2022-08-30T09:47:41.920Z,28.05
2022-08-30T09:50:13.068Z,29.52
2022-08-30T09:53:01.482Z,30.93
2022-08-30T09:56:03.890Z,27.10
2022-08-30T10:01:48.794Z,33.15
2022-08-30T10:04:40.929Z,28.33
2022-08-30T10:07:13.550Z,33.45
2022-08-30T10:10:03.099Z,26.75
2022-08-30T10:12:40.017Z,22.13
2022-08-30T10:15:30.183Z,26.52
2022-08-30T10:18:07.274Z,26.77
2022-08-30T10:21:00.459Z,26.17
2022-08-30T10:23:40.571Z,26.70
2022-08-30T10:26:26.109Z,27.98
2022-08-30T10:29:11.557Z,26.55
2022-08-30T10:32:15.536Z,24.98
2022-08-30T10:34:50.054Z,28.10
2022-08-30T10:37:22.109Z,28.05
2022-08-30T10:39:56.383Z,22.50
2022-08-30T10:42:24.853Z,27.23
2022-08-30T10:45:04.053Z,24.77
2022-08-30T10:47:36.981Z,23.67
2022-08-30T10:50:19.229Z,20.40
2022-08-30T10:53:20.415Z,26.45
2022-08-30T10:56:10.414Z,27.25
2022-08-30T10:58:42.195Z,17.45
2022-08-30T11:01:33.211Z,18.42
2022-08-30T11:04:19.427Z,25.80
2022-08-30T11:07:11.122Z,20.45
2022-08-30T11:09:44.358Z,22.80
2022-08-30T11:12:11.558Z,22.20
2022-08-30T11:14:45.284Z,17.85
2022-08-30T11:17:32.016Z,23.67
2022-08-30T11:20:02.808Z,20.58
2022-08-30T11:22:38.244Z,24.10
2022-08-30T11:25:16.633Z,23.45
2022-08-30T11:28:01.498Z,19.45
2022-08-30T11:30:28.622Z,20.23
2022-08-30T11:33:00.922Z,18.67
2022-08-30T11:35:52.585Z,15.90
2022-08-30T11:38:43.266Z,17.60
2022-08-30T11:41:42.461Z,20.90
2022-08-30T11:44:24.335Z,22.88
2022-08-30T11:49:23.488Z,23.52
2022-08-30T11:52:28.419Z,21.75
2022-08-30T11:55:20.393Z,17.33
2022-08-30T11:58:06.928Z,23.23
2022-08-30T12:00:52.552Z,21.52
2022-08-30T12:03:20.756Z,22.23
2022-08-30T12:06:08.314Z,18.77
2022-08-30T12:08:36.207Z,18.13
2022-08-30T12:11:09.103Z,17.30
2022-08-30T12:13:37.758Z,16.92
2022-08-30T12:16:14.870Z,17.80
2022-08-30T12:19:05.652Z,15.82
2022-08-30T12:21:44.885Z,19.92
2022-08-30T12:24:27.685Z,18.25
2022-08-30T12:26:55.198Z,20.45
2022-08-30T12:29:29.248Z,19.65
2022-08-30T12:31:58.592Z,22.65
2022-08-30T12:34:35.451Z,18.45
2022-08-30T12:37:27.347Z,17.42
2022-08-30T12:40:22.250Z,20.08
2022-08-30T12:43:04.917Z,16.80
2022-08-30T12:45:40.148Z,19.83
2022-08-30T12:48:14.988Z,17.02
2022-08-30T12:50:57.969Z,16.05
2022-08-30T12:53:32.764Z,15.60
2022-08-30T12:56:05.046Z,17.40
2022-08-30T12:58:41.685Z,14.55
2022-08-30T13:01:28.829Z,14.85
2022-08-30T13:04:11.546Z,19.67
2022-08-30T13:06:50.265Z,18.73
2022-08-30T13:09:36.410Z,16.73
2022-08-30T13:12:21.497Z,14.68
2022-08-30T13:14:50.104Z,18.58
2022-08-30T13:17:20.421Z,15.65
2022-08-30T13:19:59.074Z,13.98
2022-08-30T13:22:36.150Z,16.90
2022-08-30T13:25:04.808Z,15.55
2022-08-30T13:27:36.831Z,17.40
2022-08-30T13:30:14.586Z,22.15
2022-08-30T13:32:42.552Z,18.35
2022-08-30T13:35:11.082Z,18.52
2022-08-30T13:37:49.483Z,17.27
2022-08-30T13:40:21.171Z,16.40
2022-08-30T13:42:49.564Z,18.88
2022-08-30T13:48:06.660Z,14.30
2022-08-30T13:50:33.854Z,14.93
2022-08-30T13:53:03.690Z,12.18
2022-08-30T13:55:30.870Z,11.45
2022-08-30T13:57:59.435Z,17.60
2022-08-30T14:00:28.258Z,14.70
2022-08-30T14:02:57.771Z,12.65
2022-08-30T14:11:13.101Z,17.45
2022-08-30T14:16:31.670Z,12.20
2022-08-30T14:19:00.692Z,21.60
2022-08-30T14:21:29.787Z,15.90
2022-08-30T14:23:58.887Z,11.98
2022-08-30T14:26:37.425Z,15.93
2022-08-30T14:29:09.569Z,17.38
2022-08-30T14:31:38.701Z,13.57
2022-08-30T14:34:07.756Z,14.98
2022-08-30T14:36:36.412Z,15.85
2022-08-30T14:39:08.691Z,18.08
2022-08-30T14:41:43.748Z,19.00
2022-08-30T14:44:15.284Z,11.75
2022-08-30T14:46:43.745Z,19.70
2022-08-30T14:49:12.639Z,15.02
2022-08-30T14:51:40.719Z,20.33
2022-08-30T14:54:09.355Z,21.02
2022-08-30T14:56:39.177Z,16.02
2022-08-30T14:59:07.105Z,23.25
2022-08-30T15:01:37.049Z,23.33
2022-08-30T15:04:07.221Z,18.98
2022-08-30T15:06:37.124Z,19.15
2022-08-30T15:09:07.591Z,24.63
2022-08-30T15:11:35.129Z,19.90
2022-08-30T15:14:02.316Z,19.85
2022-08-30T15:16:33.073Z,19.33
2022-08-30T15:19:02.952Z,16.23
2022-08-30T15:21:33.678Z,21.33
2022-08-30T15:24:02.648Z,20.92
2022-08-30T15:26:29.778Z,18.50
2022-08-30T15:29:00.209Z,22.00
2022-08-30T15:31:29.119Z,19.45
2022-08-30T15:33:58.828Z,20.55
2022-08-30T15:36:27.909Z,16.42
2022-08-30T15:38:56.501Z,22.27
2022-08-30T15:41:24.257Z,23.42
2022-08-30T15:43:52.937Z,20.67
2022-08-30T15:46:23.839Z,14.82
2022-08-30T15:49:04.523Z,21.40
2022-08-30T15:51:40.966Z,17.30
2022-08-30T15:54:11.593Z,20.40
2022-08-30T15:56:39.894Z,25.45
2022-08-30T15:59:09.950Z,18.40
2022-08-30T16:01:38.447Z,20.15
2022-08-30T16:04:06.367Z,22.50
2022-08-30T16:06:46.688Z,23.20
2022-08-30T16:09:14.251Z,22.13
2022-08-30T16:11:44.081Z,17.60
2022-08-30T16:14:11.531Z,17.33
2022-08-30T16:16:39.914Z,21.52
2022-08-30T16:19:09.285Z,22.15
2022-08-30T16:21:37.268Z,20.20
2022-08-30T16:24:10.552Z,18.50
2022-08-30T16:26:42.374Z,23.40
2022-08-30T16:29:12.754Z,22.90
2022-08-30T16:31:44.312Z,24.65
2022-08-30T16:34:14.326Z,21.80
2022-08-30T16:36:41.640Z,24.13
2022-08-30T16:39:10.394Z,23.15
2022-08-30T16:41:39.155Z,22.85
2022-08-30T16:44:07.299Z,25.00
2022-08-30T16:46:39.879Z,23.20
2022-08-30T16:49:09.074Z,21.75
2022-08-30T16:51:36.910Z,18.08
2022-08-30T16:54:07.666Z,21.27
2022-08-30T16:56:36.414Z,22.50
2022-08-30T16:59:10.871Z,27.30
2022-08-30T17:01:39.111Z,17.27
2022-08-30T17:04:08.295Z,19.73
2022-08-30T17:06:36.586Z,22.10
2022-08-30T17:09:08.462Z,23.17
2022-08-30T17:11:40.294Z,23.45
2022-08-30T17:14:08.515Z,30.30
2022-08-30T17:16:37.093Z,25.23
2022-08-30T17:19:06.201Z,20.25
2022-08-30T17:21:34.146Z,22.05
2022-08-30T17:24:04.291Z,23.33
2022-08-30T17:26:33.285Z,21.05
2022-08-30T17:29:01.043Z,20.85
2022-08-30T17:31:31.266Z,32.33
2022-08-30T17:34:03.435Z,26.38
2022-08-30T17:36:41.139Z,24.83
2022-08-30T17:39:11.815Z,31.30
2022-08-30T17:41:48.199Z,26.20
2022-08-30T17:44:25.517Z,27.98
2022-08-30T17:46:53.629Z,23.55
2022-08-30T17:49:21.446Z,29.95
2022-08-30T17:51:56.370Z,23.95
2022-08-30T17:57:13.241Z,28.80
2022-08-30T17:59:45.403Z,25.52
2022-08-30T18:02:16.620Z,24.42
2022-08-30T18:04:50.365Z,22.10
2022-08-30T18:07:17.578Z,24.08
2022-08-30T18:09:57.163Z,24.13
2022-08-30T18:12:33.688Z,18.10
2022-08-30T18:15:02.027Z,21.85
2022-08-30T18:17:49.139Z,22.42
2022-08-30T18:20:19.528Z,23.05
2022-08-30T18:22:49.547Z,24.98
2022-08-30T18:25:21.072Z,19.55
2022-08-30T18:27:58.108Z,29.15
2022-08-30T18:33:17.021Z,31.80
2022-08-30T18:35:49.270Z,30.10
2022-08-30T18:38:23.806Z,31.08
2022-08-30T18:40:57.880Z,24.05
2022-08-30T18:43:30.574Z,25.52
2022-08-30T18:46:09.555Z,33.72
2022-08-30T18:48:38.062Z,28.40
2022-08-30T18:51:20.153Z,25.85
2022-08-30T18:53:48.729Z,25.50
2022-08-30T18:56:17.005Z,32.28
2022-08-30T18:58:45.246Z,27.73
2022-08-30T19:01:13.033Z,25.35
2022-08-30T19:03:44.187Z,21.05
2022-08-30T19:06:12.515Z,27.63
2022-08-30T19:08:41.401Z,26.35
2022-08-30T19:11:13.210Z,35.38
2022-08-30T19:13:40.474Z,30.42
2022-08-30T19:16:08.739Z,37.40
2022-08-30T19:18:39.379Z,24.50
2022-08-30T19:21:07.523Z,28.08
2022-08-30T19:23:41.245Z,26.80
2022-08-30T19:26:08.727Z,38.92
2022-08-30T19:28:38.975Z,34.13
2022-08-30T19:31:09.227Z,23.00
2022-08-30T19:33:36.569Z,26.38
2022-08-30T19:36:06.036Z,27.75
2022-08-30T19:38:35.748Z,25.92
2022-08-30T19:41:03.350Z,33.22
2022-08-30T19:43:31.176Z,29.27
2022-08-30T19:45:59.994Z,19.23
2022-08-30T19:48:32.749Z,26.00
2022-08-30T19:51:06.837Z,26.17
2022-08-30T19:53:35.176Z,25.88
2022-08-30T19:56:02.604Z,24.90
2022-08-30T19:58:30.634Z,28.20
2022-08-30T20:01:10.738Z,19.98
2022-08-30T20:06:11.136Z,30.30
2022-08-30T20:08:41.526Z,25.63
2022-08-30T20:11:13.981Z,28.17
2022-08-30T20:16:13.801Z,17.88
2022-08-30T20:18:42.889Z,27.73
2022-08-30T20:21:14.139Z,27.63
2022-08-30T20:23:43.187Z,25.52
2022-08-30T20:24:26.497Z,27.60
2022-08-30T20:24:27.094Z,41.85
2022-08-30T20:26:12.556Z,23.52
2022-08-30T20:28:43.811Z,30.30
2022-08-30T20:31:36.646Z,23.80
2022-08-30T20:34:05.576Z,22.15
2022-08-30T20:36:33.841Z,22.02
2022-08-30T20:39:02.282Z,21.73
2022-08-30T20:41:32.116Z,27.70
2022-08-30T20:44:00.215Z,29.90
2022-08-30T20:46:32.027Z,25.70
2022-08-30T20:49:02.847Z,27.40
2022-08-30T20:51:30.364Z,22.45
2022-08-30T20:53:57.979Z,20.70
2022-08-30T20:56:29.574Z,33.20
2022-08-30T20:58:56.823Z,23.20
2022-08-30T21:01:30.273Z,21.67
2022-08-30T21:03:57.427Z,23.48
2022-08-30T21:06:28.347Z,30.40
2022-08-30T21:08:55.828Z,20.05
2022-08-30T21:11:23.484Z,19.98
2022-08-30T21:13:50.866Z,19.38
2022-08-30T21:16:21.991Z,18.13
2022-08-30T21:18:51.705Z,14.57
2022-08-30T21:21:22.820Z,20.33
2022-08-30T21:23:51.027Z,20.13
2022-08-30T21:26:19.263Z,14.57
2022-08-30T21:28:51.337Z,15.82
2022-08-30T21:31:24.166Z,16.67
2022-08-30T21:33:53.073Z,20.85
2022-08-30T21:36:39.644Z,15.75
2022-08-30T21:39:07.486Z,15.45
2022-08-30T21:41:37.001Z,25.05
2022-08-30T21:44:07.921Z,16.25
2022-08-30T21:46:36.232Z,15.02
2022-08-30T21:49:06.686Z,17.48
2022-08-30T21:51:37.942Z,13.35
2022-08-30T21:54:07.819Z,12.05
2022-08-30T21:56:36.604Z,20.50
2022-08-30T21:59:05.463Z,18.38
2022-08-30T22:01:33.114Z,16.13
2022-08-30T22:04:02.345Z,19.95
2022-08-30T22:06:32.347Z,13.18
2022-08-30T22:09:02.589Z,12.35
2022-08-30T22:11:35.047Z,13.65
2022-08-30T22:14:02.717Z,16.35
2022-08-30T22:16:30.891Z,13.85
2022-08-30T22:18:58.442Z,14.98
2022-08-30T22:21:27.897Z,14.48
2022-08-30T22:23:55.756Z,12.75
2022-08-30T22:26:24.206Z,9.95
2022-08-30T22:28:53.398Z,9.82
2022-08-30T22:31:22.214Z,10.90
2022-08-30T22:33:49.973Z,12.02
2022-08-30T22:36:24.950Z,11.48
2022-08-30T22:39:01.716Z,13.35
2022-08-30T22:41:31.301Z,14.88
2022-08-30T22:43:58.856Z,11.77
2022-08-30T22:46:34.030Z,11.50
2022-08-30T22:49:04.173Z,11.02
2022-08-30T22:51:31.693Z,15.18
2022-08-30T22:53:58.876Z,17.33
2022-08-30T22:56:26.682Z,11.27
2022-08-30T22:58:55.335Z,10.68
2022-08-30T23:01:31.153Z,14.38
2022-08-30T23:03:59.114Z,11.45
2022-08-30T23:06:29.482Z,11.23
2022-08-30T23:08:59.835Z,15.65
2022-08-30T23:11:27.325Z,13.95
2022-08-30T23:13:54.532Z,13.68
2022-08-30T23:16:22.154Z,10.93
2022-08-30T23:18:49.781Z,15.15
2022-08-30T23:21:23.725Z,18.65
2022-08-30T23:24:11.035Z,15.52
2022-08-30T23:26:57.893Z,18.20
2022-08-30T23:29:44.043Z,19.52
2022-08-30T23:32:30.185Z,19.73
2022-08-30T23:35:15.941Z,12.65
2022-08-30T23:38:01.584Z,14.35
2022-08-30T23:40:47.401Z,15.35
2022-08-30T23:43:33.113Z,9.73
2022-08-30T23:46:19.426Z,18.17
2022-08-30T23:49:09.982Z,14.40
2022-08-30T23:51:57.298Z,16.92
2022-08-30T23:54:43.498Z,14.52
2022-08-30T23:57:29.012Z,13.93
